Portada
METAR-TAF:

METAR-TAF

Aeropuertos :

Tenerife, España

Aeropuerto de Tenerife Norte

latitud: 28-28N, longitud: 016-19W, altitud: 632 m

Observación

El informe se hizo hace 35 minutos, a las 13:30 UTC
Viento 17 kt del norte-noroeste, variando entre oeste-noroeste y norte
Temperatura 14°C
Humedad 72%
Presión 1024 hPa
Visibilidad 10 km o más
Cielo nuboso a una altura de 1900 ft
Cielo nuboso a una altura de 2600 ft

METAR: GCXO 181330Z 33017KT 300V010 9999 BKN019 BKN026 14/09 Q1024 NOSIG

Hora: 14:05 (14:05 UTC)

Pronóstico

El informe se hizo hace 6 horas y 5 minutos, a las 08:00 UTC
Pronóstico válido del 18 a las 09 UTC al 19 a las 09 UTC
Viento 16 kt del noroeste
Visibilidad 10 km o más
Cielo nuboso a una altura de 1500 ft

TAF: GCXO 180800Z 1809/1909 32016KT 9999 BKN015 TX15/1814Z TN09/1906Z

Observaciones y pronósticos meteorológicos de más de 4000 aeropuertos (mensajes METAR y TAF).

Los puntos amarillos y rojos representan las estaciones disponibles.

Ponga el ratón en el punto deseado para ver el nombre de la estación.

Haga clic para ver las observaciones y los pronósticos meteorológicos.

Para cambiar el mapa : haga clic en los botones verdes con una cruz de color negro para hacer un zoom, en el botón verde con un guión para alejar o en las flechas verdes para mapas adyacentes.


METAR-TAF: